createdAt,value
2022-08-07T00:01:43.260Z,19.54
2022-08-07T00:03:51.630Z,19.49
2022-08-07T00:06:18.425Z,19.43
2022-08-07T00:08:57.326Z,19.39
2022-08-07T00:11:48.101Z,19.34
2022-08-07T00:14:25.362Z,19.38
2022-08-07T00:16:55.267Z,19.35
2022-08-07T00:19:26.112Z,19.28
2022-08-07T00:22:03.571Z,19.27
2022-08-07T00:24:31.599Z,19.22
2022-08-07T00:27:07.198Z,19.22
2022-08-07T00:29:34.437Z,19.18
2022-08-07T00:32:05.833Z,19.23
2022-08-07T00:34:33.428Z,19.18
2022-08-07T00:37:02.812Z,19.19
2022-08-07T00:39:33.274Z,19.23
2022-08-07T00:42:02.564Z,19.28
2022-08-07T00:44:33.236Z,19.28
2022-08-07T00:47:01.582Z,19.26
2022-08-07T00:50:18.944Z,19.25
2022-08-07T00:52:17.492Z,19.26
2022-08-07T00:54:44.376Z,19.26
2022-08-07T00:57:12.583Z,19.20
2022-08-07T00:59:42.105Z,19.30
2022-08-07T01:02:20.298Z,19.32
2022-08-07T01:04:58.862Z,19.32
2022-08-07T01:07:27.797Z,19.31
2022-08-07T01:10:06.602Z,19.30
2022-08-07T01:12:53.382Z,19.34
2022-08-07T01:15:36.128Z,19.35
2022-08-07T01:18:10.925Z,19.32
2022-08-07T01:20:58.489Z,19.33
2022-08-07T01:23:36.861Z,19.27
2022-08-07T01:26:12.181Z,19.26
2022-08-07T01:28:45.823Z,19.22
2022-08-07T01:31:17.739Z,19.11
2022-08-07T01:33:55.758Z,19.18
2022-08-07T01:36:33.334Z,19.15
2022-08-07T01:39:10.052Z,19.13
2022-08-07T01:42:07.134Z,19.11
2022-08-07T01:44:30.206Z,19.09
2022-08-07T01:46:58.550Z,19.08
2022-08-07T01:49:32.011Z,19.04
2022-08-07T01:52:04.772Z,19.02
2022-08-07T01:54:38.463Z,19.01
2022-08-07T01:57:24.222Z,18.97
2022-08-07T02:00:13.005Z,18.98
2022-08-07T02:03:19.222Z,18.94
2022-08-07T02:06:01.062Z,18.88
2022-08-07T02:08:37.801Z,18.88
2022-08-07T02:11:07.471Z,18.86
2022-08-07T02:13:56.456Z,18.81
2022-08-07T02:16:29.924Z,18.84
2022-08-07T02:19:05.753Z,18.80
2022-08-07T02:21:55.431Z,18.82
2022-08-07T02:24:24.679Z,18.77
2022-08-07T02:26:54.261Z,18.75
2022-08-07T02:29:22.065Z,18.61
2022-08-07T02:31:51.342Z,18.47
2022-08-07T02:34:21.279Z,18.41
2022-08-07T02:36:53.327Z,18.39
2022-08-07T02:39:43.890Z,18.36
2022-08-07T02:42:14.767Z,18.36
2022-08-07T02:44:48.871Z,18.38
2022-08-07T02:47:23.439Z,18.38
2022-08-07T02:49:57.550Z,18.34
2022-08-07T02:52:52.731Z,18.29
2022-08-07T02:55:28.740Z,18.22
2022-08-07T02:58:12.053Z,18.17
2022-08-07T03:00:47.012Z,18.23
2022-08-07T03:03:22.897Z,18.22
2022-08-07T03:05:54.142Z,18.22
2022-08-07T03:08:26.805Z,18.17
2022-08-07T03:10:58.260Z,18.17
2022-08-07T03:13:38.797Z,18.14
2022-08-07T03:16:08.254Z,18.12
2022-08-07T03:18:36.452Z,18.10
2022-08-07T03:21:08.642Z,18.05
2022-08-07T03:24:21.080Z,17.97
2022-08-07T03:26:34.837Z,17.86
2022-08-07T03:29:11.094Z,17.78
2022-08-07T03:31:46.233Z,17.77
2022-08-07T03:34:18.229Z,17.77
2022-08-07T03:36:50.017Z,17.74
2022-08-07T03:39:18.217Z,17.74
2022-08-07T03:42:06.826Z,17.70
2022-08-07T03:44:38.562Z,17.67
2022-08-07T03:47:10.937Z,17.63
2022-08-07T03:49:40.363Z,17.66
2022-08-07T03:52:22.295Z,17.61
2022-08-07T03:54:54.314Z,17.61
2022-08-07T03:58:33.953Z,17.58
2022-08-07T04:00:12.014Z,17.57
2022-08-07T04:02:47.225Z,17.60
2022-08-07T04:05:23.980Z,17.59
2022-08-07T04:07:57.382Z,17.56
2022-08-07T04:10:27.759Z,17.55
2022-08-07T04:12:57.161Z,17.57
2022-08-07T04:15:27.051Z,17.53
2022-08-07T04:18:58.005Z,17.53
2022-08-07T04:20:54.829Z,17.53
2022-08-07T04:23:24.312Z,17.51
2022-08-07T04:26:10.697Z,17.45
2022-08-07T04:28:40.923Z,17.43
2022-08-07T04:31:10.517Z,17.41
2022-08-07T04:33:55.025Z,17.50
2022-08-07T04:36:26.264Z,17.46
2022-08-07T04:38:54.119Z,17.45
2022-08-07T04:41:21.004Z,17.48
2022-08-07T04:44:12.056Z,17.53
2022-08-07T04:47:08.284Z,17.52
2022-08-07T04:50:05.910Z,17.57
2022-08-07T04:52:51.743Z,17.63
2022-08-07T04:58:11.442Z,17.65
2022-08-07T05:01:46.957Z,17.75
2022-08-07T05:04:43.915Z,17.90
2022-08-07T05:07:36.793Z,17.98
2022-08-07T05:10:13.931Z,18.16
2022-08-07T05:13:10.115Z,18.44
2022-08-07T05:15:59.929Z,18.86
2022-08-07T05:18:36.649Z,19.17
2022-08-07T05:21:09.709Z,19.32
2022-08-07T05:23:48.288Z,19.39
2022-08-07T05:26:24.188Z,19.33
2022-08-07T05:28:59.130Z,19.23
2022-08-07T05:31:35.038Z,19.18
2022-08-07T05:34:11.234Z,19.18
2022-08-07T05:36:43.693Z,19.16
2022-08-07T05:40:16.723Z,19.44
2022-08-07T05:42:12.455Z,19.88
2022-08-07T05:44:53.038Z,20.34
2022-08-07T05:47:38.185Z,20.63
2022-08-07T05:50:18.610Z,21.06
2022-08-07T05:52:45.825Z,21.35
2022-08-07T05:55:16.736Z,21.64
2022-08-07T05:57:47.446Z,21.73
2022-08-07T06:00:17.889Z,21.96
2022-08-07T06:02:57.785Z,21.78
2022-08-07T06:05:28.786Z,21.37
2022-08-07T06:08:12.339Z,21.06
2022-08-07T06:10:43.415Z,20.96
2022-08-07T06:13:13.633Z,20.78
2022-08-07T06:15:44.253Z,20.54
2022-08-07T06:18:19.363Z,20.51
2022-08-07T06:20:49.873Z,20.44
2022-08-07T06:24:37.908Z,20.42
2022-08-07T06:26:27.455Z,20.55
2022-08-07T06:28:57.946Z,20.68
2022-08-07T06:31:46.645Z,20.86
2022-08-07T06:34:14.660Z,20.98
2022-08-07T06:36:41.848Z,21.14
2022-08-07T06:40:15.683Z,21.10
2022-08-07T06:42:04.621Z,20.97
2022-08-07T06:44:51.892Z,20.88
2022-08-07T06:47:21.066Z,20.85
2022-08-07T06:49:52.099Z,20.87
2022-08-07T06:52:35.752Z,21.00
2022-08-07T06:55:33.827Z,20.96
2022-08-07T06:58:00.451Z,20.97
2022-08-07T07:00:34.551Z,20.94
2022-08-07T07:03:08.725Z,20.91
2022-08-07T07:06:04.150Z,20.92
2022-08-07T07:08:28.744Z,20.88
2022-08-07T07:10:56.686Z,21.03
2022-08-07T07:13:41.617Z,21.28
2022-08-07T07:16:27.502Z,21.66
2022-08-07T07:19:11.231Z,21.98
2022-08-07T07:22:05.431Z,22.07
2022-08-07T07:24:36.535Z,22.11
2022-08-07T07:27:05.730Z,22.08
2022-08-07T07:29:56.147Z,22.09
2022-08-07T07:32:25.632Z,22.16
2022-08-07T07:34:57.715Z,22.16
2022-08-07T07:37:47.368Z,22.25
2022-08-07T07:40:17.285Z,22.36
2022-08-07T07:42:54.287Z,22.82
2022-08-07T07:46:37.326Z,23.34
2022-08-07T07:48:24.368Z,23.77
2022-08-07T07:51:07.782Z,24.41
2022-08-07T07:53:51.705Z,24.71
2022-08-07T07:56:30.370Z,24.96
2022-08-07T07:59:01.950Z,25.11
2022-08-07T08:02:02.666Z,25.25
2022-08-07T08:04:19.657Z,25.54
2022-08-07T08:06:53.367Z,25.66
2022-08-07T08:09:24.127Z,25.92
2022-08-07T08:14:32.527Z,26.39
2022-08-07T08:20:18.691Z,25.76
2022-08-07T08:23:00.157Z,25.55
2022-08-07T08:25:49.355Z,25.78
2022-08-07T08:28:37.225Z,26.03
2022-08-07T08:33:34.953Z,26.21
2022-08-07T08:36:03.412Z,26.11
2022-08-07T08:38:41.143Z,26.09
2022-08-07T08:41:58.499Z,25.95
2022-08-07T08:44:44.370Z,25.70
2022-08-07T08:47:27.225Z,25.48
2022-08-07T08:50:34.964Z,25.38
2022-08-07T08:53:31.968Z,25.19
2022-08-07T08:56:13.063Z,24.88
2022-08-07T08:59:12.892Z,24.84
2022-08-07T09:01:59.459Z,24.69
2022-08-07T09:04:48.231Z,24.48
2022-08-07T09:08:02.742Z,24.49
2022-08-07T09:10:37.663Z,24.87
2022-08-07T09:13:38.300Z,25.27
2022-08-07T09:16:29.729Z,25.50
2022-08-07T09:19:07.330Z,25.89
2022-08-07T09:24:33.425Z,26.58
2022-08-07T09:25:24.396Z,26.83
2022-08-07T09:30:03.472Z,27.00
2022-08-07T09:31:15.554Z,27.20
2022-08-07T09:34:10.012Z,27.19
2022-08-07T09:36:58.132Z,27.37
2022-08-07T09:39:53.739Z,27.68
2022-08-07T09:42:25.248Z,27.80
2022-08-07T09:47:23.588Z,27.77
2022-08-07T09:48:03.962Z,27.83
2022-08-07T09:52:15.299Z,27.75
2022-08-07T09:54:06.646Z,27.91
2022-08-07T09:57:17.268Z,27.91
2022-08-07T10:00:00.917Z,27.67
2022-08-07T10:04:03.138Z,27.81
2022-08-07T10:06:30.180Z,27.66
2022-08-07T10:09:34.231Z,28.03
2022-08-07T10:12:26.337Z,28.31
2022-08-07T10:15:26.893Z,28.73
2022-08-07T10:18:30.148Z,28.87
2022-08-07T10:22:12.020Z,29.03
2022-08-07T10:24:27.942Z,28.97
2022-08-07T10:27:15.737Z,29.24
2022-08-07T10:30:12.331Z,29.40
2022-08-07T10:33:07.184Z,29.25
2022-08-07T10:35:53.675Z,28.79
2022-08-07T10:38:36.131Z,28.36
2022-08-07T10:41:46.267Z,28.48
2022-08-07T10:44:16.022Z,28.71
2022-08-07T10:47:11.942Z,28.75
2022-08-07T10:49:51.261Z,29.09
2022-08-07T10:52:51.417Z,29.31
2022-08-07T10:55:53.341Z,29.14
2022-08-07T10:58:59.378Z,28.98
2022-08-07T11:01:51.184Z,28.88
2022-08-07T11:04:40.962Z,28.97
2022-08-07T11:07:59.235Z,29.08
2022-08-07T11:10:33.621Z,29.38
2022-08-07T11:13:07.148Z,29.57
2022-08-07T11:15:55.569Z,29.46
2022-08-07T11:18:39.045Z,29.73
2022-08-07T11:21:18.283Z,30.15
2022-08-07T11:24:06.437Z,30.28
2022-08-07T11:27:00.311Z,30.40
2022-08-07T11:29:40.750Z,30.49
2022-08-07T11:32:26.496Z,30.28
2022-08-07T11:35:03.799Z,30.04
2022-08-07T11:37:57.549Z,30.15
2022-08-07T11:41:08.614Z,30.37
2022-08-07T11:44:11.849Z,30.39
2022-08-07T11:46:53.009Z,30.22
2022-08-07T11:50:11.376Z,30.29
2022-08-07T11:53:02.398Z,30.42
2022-08-07T11:56:27.636Z,30.42
2022-08-07T12:00:12.090Z,30.56
2022-08-07T12:02:52.392Z,30.58
2022-08-07T12:05:41.638Z,30.79
2022-08-07T12:08:25.822Z,30.63
2022-08-07T12:11:20.197Z,30.58
2022-08-07T12:13:59.400Z,30.50
2022-08-07T12:16:33.073Z,30.50
2022-08-07T12:19:06.721Z,30.58
2022-08-07T12:22:38.056Z,30.67
2022-08-07T12:26:21.399Z,30.96
2022-08-07T12:28:56.575Z,31.03
2022-08-07T12:32:02.033Z,30.98
2022-08-07T12:34:34.533Z,30.69
2022-08-07T12:37:08.221Z,30.53
2022-08-07T12:39:51.185Z,30.68
2022-08-07T12:42:27.571Z,30.85
2022-08-07T12:44:57.870Z,30.72
2022-08-07T12:47:50.206Z,30.67
2022-08-07T12:50:33.951Z,30.82
2022-08-07T12:53:19.042Z,30.77
2022-08-07T12:56:09.091Z,30.85
2022-08-07T12:58:40.057Z,30.87
2022-08-07T13:01:21.856Z,30.69
2022-08-07T13:04:05.047Z,30.78
2022-08-07T13:07:00.682Z,30.91
2022-08-07T13:10:20.719Z,30.85
2022-08-07T13:12:56.346Z,30.70
2022-08-07T13:15:59.033Z,30.65
2022-08-07T13:18:57.006Z,30.41
2022-08-07T13:21:50.522Z,30.38
2022-08-07T13:24:26.017Z,30.43
2022-08-07T13:27:05.604Z,30.40
2022-08-07T13:30:03.456Z,30.09
2022-08-07T13:32:39.721Z,29.84
2022-08-07T13:35:21.356Z,29.68
2022-08-07T13:38:01.052Z,29.59
2022-08-07T13:40:42.729Z,29.44
2022-08-07T13:43:15.328Z,29.45
2022-08-07T13:46:16.360Z,29.49
2022-08-07T13:48:38.786Z,29.59
2022-08-07T13:51:26.916Z,29.70
2022-08-07T13:54:01.502Z,29.56
2022-08-07T13:56:35.831Z,29.34
2022-08-07T13:59:13.795Z,29.25
2022-08-07T14:02:04.057Z,29.08
2022-08-07T14:04:35.603Z,28.95
2022-08-07T14:07:10.113Z,28.89
2022-08-07T14:10:02.928Z,28.94
2022-08-07T14:12:55.916Z,28.66
2022-08-07T14:15:32.020Z,28.59
2022-08-07T14:18:24.163Z,28.22
2022-08-07T14:22:41.176Z,28.09
2022-08-07T14:24:08.782Z,28.05
2022-08-07T14:26:52.078Z,28.11
2022-08-07T14:30:10.030Z,28.07
2022-08-07T14:32:12.926Z,27.99
2022-08-07T14:34:45.926Z,27.91
2022-08-07T14:37:16.825Z,27.94
2022-08-07T14:40:17.597Z,28.04
2022-08-07T14:43:00.629Z,28.12
2022-08-07T14:48:36.657Z,28.15
2022-08-07T14:51:20.024Z,28.08
2022-08-07T14:54:05.423Z,28.15
2022-08-07T14:56:39.007Z,28.31
2022-08-07T14:59:13.660Z,28.40
2022-08-07T15:02:31.776Z,28.40
2022-08-07T15:05:02.309Z,28.29
2022-08-07T15:13:19.609Z,28.15
2022-08-07T15:15:52.839Z,28.12
2022-08-07T15:18:35.836Z,28.09
2022-08-07T15:27:06.633Z,27.74
2022-08-07T15:30:06.818Z,27.65
2022-08-07T15:32:39.879Z,27.56
2022-08-07T15:36:00.400Z,27.55
2022-08-07T15:38:30.353Z,27.43
2022-08-07T15:41:23.137Z,27.42
2022-08-07T15:44:01.048Z,27.44
2022-08-07T15:46:31.582Z,27.46
2022-08-07T15:49:14.648Z,27.31
2022-08-07T15:54:31.450Z,27.08
2022-08-07T15:57:02.762Z,27.02
2022-08-07T15:59:39.927Z,26.91
2022-08-07T16:02:22.237Z,26.94
2022-08-07T16:05:03.419Z,26.88
2022-08-07T16:08:31.867Z,26.84
2022-08-07T16:10:31.228Z,26.88
2022-08-07T16:13:58.733Z,26.70
2022-08-07T16:16:48.343Z,26.58
2022-08-07T16:19:59.768Z,26.50
2022-08-07T16:22:34.022Z,26.50
2022-08-07T16:25:23.417Z,26.44
2022-08-07T16:30:05.889Z,26.46
2022-08-07T16:31:51.688Z,26.47
2022-08-07T16:34:34.074Z,26.45
2022-08-07T16:38:04.117Z,26.38
2022-08-07T16:40:28.842Z,26.33
2022-08-07T16:43:03.233Z,26.31
2022-08-07T16:46:11.033Z,26.35
2022-08-07T16:50:27.096Z,26.35
2022-08-07T16:52:51.514Z,26.27
2022-08-07T16:55:23.469Z,26.14
2022-08-07T16:58:20.307Z,26.06
2022-08-07T17:01:15.824Z,26.01
2022-08-07T17:04:00.345Z,25.93
2022-08-07T17:07:03.315Z,25.89
2022-08-07T17:10:08.441Z,25.87
2022-08-07T17:12:47.202Z,25.78
2022-08-07T17:15:13.798Z,25.78
2022-08-07T17:17:49.426Z,25.74
2022-08-07T17:20:30.873Z,25.76
2022-08-07T17:23:15.106Z,25.75
2022-08-07T17:25:55.881Z,25.62
2022-08-07T17:28:57.698Z,25.56
2022-08-07T17:31:43.959Z,25.44
2022-08-07T17:34:40.953Z,25.38
2022-08-07T17:38:13.495Z,25.33
2022-08-07T17:42:03.051Z,25.31
2022-08-07T17:44:13.673Z,25.34
2022-08-07T17:46:56.526Z,25.30
2022-08-07T17:49:44.519Z,25.27
2022-08-07T17:52:33.994Z,25.27
2022-08-07T17:55:54.174Z,25.25
2022-08-07T17:58:30.235Z,25.21
2022-08-07T18:01:02.600Z,25.18
2022-08-07T18:04:03.721Z,25.08
2022-08-07T18:06:38.942Z,25.01
2022-08-07T18:09:16.070Z,24.99
2022-08-07T18:12:18.071Z,24.92
2022-08-07T18:14:46.006Z,24.85
2022-08-07T18:18:45.835Z,24.84
2022-08-07T18:21:12.640Z,24.72
2022-08-07T18:23:58.417Z,24.73
2022-08-07T18:26:42.789Z,24.74
2022-08-07T18:30:07.190Z,24.67
2022-08-07T18:32:11.611Z,24.56
2022-08-07T18:35:20.259Z,24.50
2022-08-07T18:38:58.645Z,24.42
2022-08-07T18:41:47.915Z,24.19
2022-08-07T18:45:09.180Z,24.34
2022-08-07T18:47:36.035Z,24.27
2022-08-07T18:50:38.131Z,24.26
2022-08-07T18:53:36.764Z,24.25
2022-08-07T18:56:32.512Z,24.21
2022-08-07T18:58:59.043Z,24.16
2022-08-07T19:02:19.966Z,24.12
2022-08-07T19:04:57.929Z,24.04
2022-08-07T19:07:58.674Z,23.94
2022-08-07T19:10:31.519Z,23.92
2022-08-07T19:13:11.654Z,23.85
2022-08-07T19:16:05.553Z,23.78
2022-08-07T19:18:47.657Z,23.72
2022-08-07T19:21:46.478Z,23.63
2022-08-07T19:24:43.161Z,23.60
2022-08-07T19:28:30.268Z,23.57
2022-08-07T19:31:05.188Z,23.48
2022-08-07T19:32:59.315Z,23.43
2022-08-07T19:35:33.279Z,23.31
2022-08-07T19:38:03.339Z,23.28
2022-08-07T19:40:38.259Z,23.16
2022-08-07T19:43:48.833Z,23.06
2022-08-07T19:46:12.107Z,22.96
2022-08-07T19:48:42.695Z,22.91
2022-08-07T19:51:19.337Z,22.82
2022-08-07T19:54:31.488Z,22.76
2022-08-07T19:58:00.369Z,22.65
2022-08-07T19:59:41.431Z,22.65
2022-08-07T20:02:19.257Z,22.61
2022-08-07T20:04:49.992Z,22.56
2022-08-07T20:07:23.888Z,22.51
2022-08-07T20:10:37.839Z,22.37
2022-08-07T20:12:53.929Z,22.39
2022-08-07T20:15:32.766Z,22.36
2022-08-07T20:18:06.200Z,22.34
2022-08-07T20:20:42.455Z,22.31
2022-08-07T20:23:32.808Z,22.24
2022-08-07T20:26:09.888Z,22.17
2022-08-07T20:28:39.088Z,22.11
2022-08-07T20:31:20.991Z,22.07
2022-08-07T20:33:56.520Z,21.99
2022-08-07T20:37:07.936Z,21.92
2022-08-07T20:40:33.230Z,21.86
2022-08-07T20:43:02.938Z,21.79
2022-08-07T20:46:27.190Z,21.74
2022-08-07T20:48:28.395Z,21.69
2022-08-07T20:50:58.497Z,21.64
2022-08-07T20:54:01.854Z,21.60
2022-08-07T20:56:13.037Z,21.53
2022-08-07T20:58:48.071Z,21.50
2022-08-07T21:01:22.303Z,21.46
2022-08-07T21:04:18.672Z,21.35
2022-08-07T21:06:53.225Z,21.33
2022-08-07T21:09:24.414Z,21.31
2022-08-07T21:11:57.535Z,21.27
2022-08-07T21:14:33.947Z,21.21
2022-08-07T21:18:06.117Z,21.13
2022-08-07T21:20:19.100Z,21.08
2022-08-07T21:22:59.107Z,21.05
2022-08-07T21:25:38.982Z,21.01
2022-08-07T21:28:18.873Z,20.97
2022-08-07T21:32:43.005Z,20.91
2022-08-07T21:34:45.988Z,20.86
2022-08-07T21:37:57.418Z,20.80
2022-08-07T21:40:38.964Z,20.75
2022-08-07T21:43:23.140Z,20.73
2022-08-07T21:46:32.232Z,20.63
2022-08-07T21:49:14.408Z,20.68
2022-08-07T21:52:11.561Z,20.68
2022-08-07T21:55:30.521Z,20.70
2022-08-07T21:58:03.154Z,20.73
2022-08-07T22:00:31.136Z,20.68
2022-08-07T22:03:10.747Z,20.66
2022-08-07T22:05:59.574Z,20.55
2022-08-07T22:09:07.023Z,20.53
2022-08-07T22:12:05.959Z,20.49
2022-08-07T22:14:36.356Z,20.43
2022-08-07T22:17:05.028Z,20.39
2022-08-07T22:19:57.424Z,20.35
2022-08-07T22:22:31.805Z,20.32
2022-08-07T22:25:27.096Z,20.25
2022-08-07T22:28:31.873Z,20.27
2022-08-07T22:31:12.152Z,20.18
2022-08-07T22:34:13.213Z,20.23
2022-08-07T22:36:53.162Z,20.23
2022-08-07T22:39:53.409Z,20.22
2022-08-07T22:42:25.957Z,20.21
2022-08-07T22:44:59.965Z,20.20
2022-08-07T22:47:37.984Z,20.15
2022-08-07T22:50:41.879Z,20.09
2022-08-07T22:54:05.442Z,20.02
2022-08-07T22:56:12.956Z,19.99
2022-08-07T22:59:02.445Z,19.96
2022-08-07T23:01:58.996Z,19.92
2022-08-07T23:04:58.091Z,19.89
2022-08-07T23:08:04.843Z,19.87
2022-08-07T23:10:53.663Z,19.87
2022-08-07T23:14:09.113Z,19.84
2022-08-07T23:16:48.511Z,19.81
2022-08-07T23:20:05.546Z,19.77
2022-08-07T23:22:48.855Z,19.73
2022-08-07T23:25:28.495Z,19.77
2022-08-07T23:28:22.594Z,19.73
2022-08-07T23:32:49.293Z,19.71
2022-08-07T23:34:44.153Z,19.68
2022-08-07T23:37:29.712Z,19.59
2022-08-07T23:40:14.732Z,19.55
2022-08-07T23:42:59.943Z,19.46
2022-08-07T23:46:07.581Z,19.38
2022-08-07T23:48:48.846Z,19.34
2022-08-07T23:52:59.746Z,19.30
2022-08-07T23:54:43.938Z,19.17
2022-08-07T23:57:34.740Z,19.22
